createdAt,value
2023-04-20T00:01:20.570Z,34.78
2023-04-20T00:03:47.190Z,35.50
2023-04-20T00:06:14.086Z,35.13
2023-04-20T00:08:40.688Z,34.25
2023-04-20T00:11:07.226Z,36.25
2023-04-20T00:13:33.800Z,35.33
2023-04-20T00:16:00.594Z,35.97
2023-04-20T00:18:27.167Z,36.38
2023-04-20T00:20:53.785Z,34.85
2023-04-20T00:23:20.564Z,34.78
2023-04-20T00:25:49.675Z,36.05
2023-04-20T00:28:16.292Z,34.03
2023-04-20T00:30:42.879Z,34.00
2023-04-20T00:33:09.443Z,33.97
2023-04-20T00:35:36.053Z,34.58
2023-04-20T00:38:02.603Z,35.70
2023-04-20T00:40:29.279Z,34.78
2023-04-20T00:42:55.868Z,36.35
2023-04-20T00:45:22.590Z,35.45
2023-04-20T00:47:49.308Z,33.00
2023-04-20T00:50:16.183Z,34.58
2023-04-20T00:52:42.927Z,37.60
2023-04-20T00:55:09.772Z,39.88
2023-04-20T00:57:36.504Z,38.08
2023-04-20T01:00:03.736Z,38.10
2023-04-20T01:02:30.424Z,39.20
2023-04-20T01:04:57.131Z,39.38
2023-04-20T01:07:26.010Z,39.75
2023-04-20T01:09:52.596Z,39.08
2023-04-20T01:12:19.174Z,38.17
2023-04-20T01:14:45.734Z,39.65
2023-04-20T01:17:15.103Z,38.50
2023-04-20T01:19:42.120Z,39.83
2023-04-20T01:22:08.648Z,40.72
2023-04-20T01:24:35.190Z,40.28
2023-04-20T01:27:01.794Z,42.70
2023-04-20T01:29:28.426Z,41.85
2023-04-20T01:31:55.164Z,43.17
2023-04-20T01:34:21.730Z,43.10
2023-04-20T01:36:48.355Z,41.13
2023-04-20T01:39:15.085Z,42.03
2023-04-20T01:41:41.879Z,40.33
2023-04-20T01:44:08.448Z,42.05
2023-04-20T01:46:41.712Z,41.95
2023-04-20T01:49:08.864Z,42.28
2023-04-20T01:51:35.896Z,37.88
2023-04-20T01:54:02.953Z,42.30
2023-04-20T01:56:29.564Z,43.33
2023-04-20T01:58:56.167Z,47.95
2023-04-20T02:01:22.809Z,49.08
2023-04-20T02:03:50.011Z,48.53
2023-04-20T02:06:17.089Z,48.60
2023-04-20T02:08:43.749Z,49.78
2023-04-20T02:11:10.333Z,49.00
2023-04-20T02:13:36.921Z,49.28
2023-04-20T02:16:03.613Z,47.53
2023-04-20T02:18:32.319Z,46.70
2023-04-20T02:21:00.917Z,47.80
2023-04-20T02:23:27.809Z,46.92
2023-04-20T02:25:54.549Z,49.50
2023-04-20T02:28:21.093Z,48.40
2023-04-20T02:30:47.679Z,46.88
2023-04-20T02:33:14.356Z,47.28
2023-04-20T02:35:40.917Z,44.80
2023-04-20T02:38:07.502Z,43.17
2023-04-20T02:40:34.035Z,43.08
2023-04-20T02:43:00.614Z,45.95
2023-04-20T02:45:27.151Z,44.63
2023-04-20T02:47:53.811Z,42.22
2023-04-20T02:50:20.936Z,41.08
2023-04-20T02:52:47.518Z,42.90
2023-04-20T02:55:14.296Z,42.80
2023-04-20T02:57:40.902Z,41.47
2023-04-20T03:00:09.087Z,42.75
2023-04-20T03:02:37.596Z,42.15
2023-04-20T03:05:04.696Z,40.22
2023-04-20T03:07:31.591Z,41.35
2023-04-20T03:09:58.138Z,42.20
2023-04-20T03:12:24.809Z,41.65
2023-04-20T03:14:51.827Z,41.83
2023-04-20T03:17:18.383Z,41.67
2023-04-20T03:19:44.959Z,41.70
2023-04-20T03:22:11.929Z,40.33
2023-04-20T03:24:38.451Z,40.80
2023-04-20T03:27:06.257Z,41.58
2023-04-20T03:29:32.823Z,40.88
2023-04-20T03:31:59.436Z,41.10
2023-04-20T03:34:26.791Z,40.85
2023-04-20T03:36:53.458Z,40.47
2023-04-20T03:39:20.184Z,38.05
2023-04-20T03:41:46.849Z,36.72
2023-04-20T03:44:15.132Z,38.60
2023-04-20T03:46:41.660Z,39.95
2023-04-20T03:49:08.237Z,39.97
2023-04-20T03:51:34.785Z,39.75
2023-04-20T03:54:01.419Z,39.67
2023-04-20T03:56:28.515Z,37.63
2023-04-20T03:58:55.090Z,37.88
2023-04-20T04:01:21.696Z,37.13
2023-04-20T04:03:48.624Z,37.67
2023-04-20T04:06:15.611Z,38.42
2023-04-20T04:08:42.137Z,38.80
2023-04-20T04:11:08.777Z,38.95
2023-04-20T04:13:36.465Z,38.25
2023-04-20T04:16:03.138Z,39.28
2023-04-20T04:18:32.531Z,43.55
2023-04-20T04:20:59.552Z,45.00
2023-04-20T04:23:26.401Z,40.40
2023-04-20T04:25:52.968Z,42.15
2023-04-20T04:28:19.776Z,37.63
2023-04-20T04:30:47.432Z,37.88
2023-04-20T04:33:14.841Z,40.70
2023-04-20T04:35:41.701Z,42.42
2023-04-20T04:38:08.631Z,39.78
2023-04-20T04:40:35.907Z,41.22
2023-04-20T04:43:02.756Z,44.25
2023-04-20T04:45:29.507Z,45.78
2023-04-20T04:47:57.243Z,44.53
2023-04-20T04:50:23.932Z,44.25
2023-04-20T04:52:50.561Z,45.05
2023-04-20T04:55:17.264Z,42.63
2023-04-20T04:57:43.809Z,41.40
2023-04-20T05:00:12.462Z,44.50
2023-04-20T05:02:39.460Z,44.97
2023-04-20T05:05:09.405Z,44.08
2023-04-20T05:07:36.358Z,43.95
2023-04-20T05:10:02.965Z,46.80
2023-04-20T05:12:29.592Z,51.45
2023-04-20T05:14:56.156Z,50.30
2023-04-20T05:17:22.722Z,51.85
2023-04-20T05:19:49.335Z,57.30
2023-04-20T05:22:15.890Z,57.08
2023-04-20T05:24:42.599Z,55.78
2023-04-20T05:27:09.582Z,61.53
2023-04-20T05:29:36.378Z,66.18
2023-04-20T05:32:03.122Z,49.22
2023-04-20T05:34:29.997Z,46.15
2023-04-20T05:36:59.207Z,48.10
2023-04-20T05:39:26.431Z,56.55
2023-04-20T05:41:53.053Z,67.70
2023-04-20T05:44:19.568Z,54.95
2023-04-20T05:46:46.246Z,62.13
2023-04-20T05:49:12.816Z,66.93
2023-04-20T05:51:39.368Z,61.10
2023-04-20T05:54:06.164Z,53.78
2023-04-20T05:56:32.790Z,69.75
2023-04-20T05:59:00.071Z,80.10
2023-04-20T06:01:26.667Z,77.88
2023-04-20T06:03:53.485Z,78.10
2023-04-20T06:06:20.076Z,74.10
2023-04-20T06:08:46.668Z,71.20
2023-04-20T06:11:13.255Z,78.05
2023-04-20T06:13:39.838Z,88.13
2023-04-20T06:16:09.558Z,86.90
2023-04-20T06:18:37.262Z,62.08
2023-04-20T06:21:04.516Z,39.50
2023-04-20T06:23:31.479Z,52.35
2023-04-20T06:25:58.069Z,55.08
2023-04-20T06:28:24.714Z,62.88
2023-04-20T06:30:51.333Z,66.07
2023-04-20T06:33:18.058Z,63.83
2023-04-20T06:35:44.751Z,66.95
2023-04-20T06:38:11.427Z,69.57
2023-04-20T06:40:38.140Z,70.30
2023-04-20T06:43:04.732Z,72.28
2023-04-20T06:45:32.906Z,72.93
2023-04-20T06:48:00.748Z,65.63
2023-04-20T06:50:27.425Z,62.40
2023-04-20T06:52:54.052Z,63.15
2023-04-20T06:55:21.069Z,62.50
2023-04-20T06:57:47.661Z,59.28
2023-04-20T07:00:15.112Z,57.65
2023-04-20T07:02:51.537Z,58.33
2023-04-20T07:05:18.630Z,54.65
2023-04-20T07:07:45.681Z,56.95
2023-04-20T07:10:14.192Z,59.75
2023-04-20T07:12:42.821Z,61.33
2023-04-20T07:15:10.888Z,66.55
2023-04-20T07:17:37.522Z,64.68
2023-04-20T07:20:09.074Z,55.55
2023-04-20T07:22:38.959Z,62.45
2023-04-20T07:25:07.925Z,64.20
2023-04-20T07:27:36.641Z,60.35
2023-04-20T07:30:03.973Z,56.72
2023-04-20T07:32:30.596Z,49.88
2023-04-20T07:34:57.223Z,46.22
2023-04-20T07:37:25.814Z,47.58
2023-04-20T07:39:53.825Z,36.60
2023-04-20T07:42:21.569Z,35.03
2023-04-20T07:44:48.623Z,33.88
2023-04-20T07:47:15.439Z,30.88
2023-04-20T07:49:43.349Z,32.22
2023-04-20T07:52:16.941Z,32.58
2023-04-20T07:54:47.508Z,31.67
2023-04-20T07:57:14.109Z,34.63
2023-04-20T07:59:41.315Z,32.55
2023-04-20T08:02:08.732Z,29.65
2023-04-20T08:04:39.046Z,32.83
2023-04-20T08:07:05.877Z,26.85
2023-04-20T08:09:32.707Z,22.50
2023-04-20T08:12:00.348Z,23.70
2023-04-20T08:14:27.098Z,23.30
2023-04-20T08:16:53.729Z,22.92
2023-04-20T08:19:20.460Z,22.38
2023-04-20T08:21:47.020Z,19.05
2023-04-20T08:24:13.751Z,19.92
2023-04-20T08:26:40.848Z,17.85
2023-04-20T08:29:07.488Z,21.77
2023-04-20T08:31:34.272Z,21.35
2023-04-20T08:34:01.370Z,19.55
2023-04-20T08:36:28.179Z,18.25
2023-04-20T08:38:58.625Z,18.38
2023-04-20T08:41:26.402Z,22.88
2023-04-20T08:43:52.976Z,20.48
2023-04-20T08:46:19.978Z,17.77
2023-04-20T08:48:48.607Z,19.73
2023-04-20T08:51:17.208Z,19.40
2023-04-20T08:53:44.172Z,17.60
2023-04-20T08:56:11.170Z,20.65
2023-04-20T08:58:42.212Z,21.10
2023-04-20T09:01:10.559Z,20.80
2023-04-20T09:03:43.037Z,22.23
2023-04-20T09:06:18.403Z,20.05
2023-04-20T09:08:46.500Z,21.35
2023-04-20T09:11:23.786Z,19.70
2023-04-20T09:14:07.346Z,21.08
2023-04-20T09:16:40.119Z,21.35
2023-04-20T09:19:09.251Z,20.25
2023-04-20T09:21:36.417Z,19.50
2023-04-20T09:24:08.177Z,19.60
2023-04-20T09:26:36.265Z,19.40
2023-04-20T09:29:04.311Z,18.50
2023-04-20T09:31:31.051Z,16.83
2023-04-20T09:34:02.904Z,15.80
2023-04-20T09:36:37.353Z,15.98
2023-04-20T09:39:11.544Z,14.75
2023-04-20T09:44:06.254Z,13.77
2023-04-20T09:46:35.085Z,14.38
2023-04-20T09:49:04.346Z,13.52
2023-04-20T09:51:33.450Z,12.82
2023-04-20T09:54:01.759Z,13.35
2023-04-20T09:56:30.613Z,12.48
2023-04-20T09:58:58.207Z,11.38
2023-04-20T10:01:25.592Z,12.73
2023-04-20T10:03:57.577Z,11.73
2023-04-20T10:06:27.738Z,12.00
2023-04-20T10:08:55.383Z,11.52
2023-04-20T10:11:53.829Z,11.50
2023-04-20T10:14:26.154Z,12.35
2023-04-20T10:17:08.836Z,12.55
2023-04-20T10:19:39.109Z,12.07
2023-04-20T10:22:06.912Z,13.00
2023-04-20T10:24:33.580Z,12.43
2023-04-20T10:27:00.536Z,11.90
2023-04-20T10:29:28.821Z,12.60
2023-04-20T10:31:56.140Z,11.55
2023-04-20T10:34:36.314Z,12.18
2023-04-20T10:37:13.402Z,12.38
2023-04-20T10:39:47.227Z,12.00
2023-04-20T10:42:15.481Z,11.77
2023-04-20T10:44:54.586Z,13.07
2023-04-20T10:47:29.836Z,12.13
2023-04-20T10:50:15.650Z,13.10
2023-04-20T10:52:44.671Z,12.73
2023-04-20T10:55:25.009Z,12.30
2023-04-20T10:57:52.316Z,12.05
2023-04-20T11:00:21.736Z,12.77
2023-04-20T11:02:50.416Z,11.35
2023-04-20T11:05:18.881Z,13.02
2023-04-20T11:07:53.669Z,12.60
2023-04-20T11:10:22.060Z,11.77
2023-04-20T11:12:48.976Z,12.80
2023-04-20T11:15:16.410Z,12.00
2023-04-20T11:17:43.136Z,11.48
2023-04-20T11:20:15.472Z,11.98
2023-04-20T11:22:43.430Z,12.38
2023-04-20T11:25:11.956Z,12.68
2023-04-20T11:27:39.616Z,12.77
2023-04-20T11:30:09.076Z,15.73
2023-04-20T11:32:36.234Z,17.35
2023-04-20T11:35:07.812Z,15.02
2023-04-20T11:37:48.103Z,12.95
2023-04-20T11:40:15.327Z,13.82
2023-04-20T11:42:41.948Z,13.35
2023-04-20T11:45:09.151Z,13.05
2023-04-20T11:47:35.732Z,11.80
2023-04-20T11:50:02.292Z,13.55
2023-04-20T11:52:28.899Z,12.52
2023-04-20T11:54:55.487Z,11.80
2023-04-20T11:57:23.886Z,12.07
2023-04-20T11:59:50.633Z,11.50
2023-04-20T12:02:17.515Z,12.38
2023-04-20T12:04:44.328Z,11.85
2023-04-20T12:07:11.035Z,11.65
2023-04-20T12:09:38.434Z,11.80
2023-04-20T12:12:06.148Z,13.98
2023-04-20T12:14:33.727Z,11.48
2023-04-20T12:17:04.569Z,11.48
2023-04-20T12:19:32.102Z,11.90
2023-04-20T12:21:58.745Z,11.60
2023-04-20T12:24:25.351Z,13.20
2023-04-20T12:26:51.969Z,12.10
2023-04-20T12:29:18.656Z,11.38
2023-04-20T12:31:45.456Z,12.15
2023-04-20T12:34:12.328Z,11.52
2023-04-20T12:36:38.926Z,13.15
2023-04-20T12:39:05.630Z,12.18
2023-04-20T12:41:33.215Z,12.40
2023-04-20T12:44:00.762Z,11.95
2023-04-20T12:46:28.808Z,12.15
2023-04-20T12:48:56.196Z,13.02
2023-04-20T12:51:22.813Z,12.07
2023-04-20T12:53:49.416Z,12.70
2023-04-20T12:56:16.014Z,12.38
2023-04-20T12:58:42.581Z,12.05
2023-04-20T13:01:09.958Z,12.38
2023-04-20T13:03:36.802Z,11.40
2023-04-20T13:06:03.668Z,11.18
2023-04-20T13:08:30.440Z,11.20
2023-04-20T13:10:56.987Z,11.35
2023-04-20T13:13:23.525Z,10.77
2023-04-20T13:15:50.151Z,9.90
2023-04-20T13:18:16.750Z,10.30
2023-04-20T13:20:43.316Z,10.43
2023-04-20T13:23:09.947Z,10.63
2023-04-20T13:25:38.656Z,10.30
2023-04-20T13:28:05.612Z,9.15
2023-04-20T13:30:32.725Z,9.30
2023-04-20T13:32:59.400Z,9.90
2023-04-20T13:35:26.319Z,8.63
2023-04-20T13:37:52.888Z,8.30
2023-04-20T13:40:19.448Z,8.27
2023-04-20T13:42:46.080Z,7.75
2023-04-20T13:45:12.683Z,7.88
2023-04-20T13:47:40.389Z,8.20
2023-04-20T13:50:07.750Z,8.73
2023-04-20T13:52:34.726Z,8.55
2023-04-20T13:55:01.349Z,8.70
2023-04-20T13:57:27.966Z,8.45
2023-04-20T13:59:54.538Z,8.32
2023-04-20T14:02:21.405Z,8.05
2023-04-20T14:04:48.151Z,9.20
2023-04-20T14:07:14.809Z,8.43
2023-04-20T14:09:41.518Z,8.93
2023-04-20T14:12:08.193Z,8.77
2023-04-20T14:14:34.760Z,8.80
2023-04-20T14:17:02.022Z,9.15
2023-04-20T14:19:28.643Z,8.90
2023-04-20T14:21:55.376Z,8.80
2023-04-20T14:24:21.939Z,9.43
2023-04-20T14:26:48.571Z,8.50
2023-04-20T14:29:15.743Z,8.93
2023-04-20T14:31:42.404Z,9.02
2023-04-20T14:34:09.593Z,8.63
2023-04-20T14:36:36.235Z,8.48
2023-04-20T14:39:02.819Z,7.82
2023-04-20T14:41:30.659Z,7.57
2023-04-20T14:43:58.328Z,7.03
2023-04-20T14:46:25.057Z,6.80
2023-04-20T14:48:52.256Z,7.60
2023-04-20T14:51:20.814Z,7.60
2023-04-20T14:53:47.382Z,7.00
2023-04-20T14:56:13.955Z,7.05
2023-04-20T14:58:42.353Z,7.28
2023-04-20T15:01:09.086Z,8.15
2023-04-20T15:03:35.939Z,7.18
2023-04-20T15:06:03.599Z,7.07
2023-04-20T15:08:30.704Z,6.70
2023-04-20T15:10:57.504Z,6.60
2023-04-20T15:13:24.713Z,6.90
2023-04-20T15:15:54.185Z,7.00
2023-04-20T15:18:21.736Z,6.60
2023-04-20T15:20:50.451Z,7.25
2023-04-20T15:23:17.251Z,7.43
2023-04-20T15:25:43.949Z,7.53
2023-04-20T15:28:11.224Z,7.25
2023-04-20T15:30:37.904Z,6.65
2023-04-20T15:33:05.491Z,7.38
2023-04-20T15:35:32.893Z,6.80
2023-04-20T15:37:59.524Z,7.13
2023-04-20T15:40:27.354Z,7.75
2023-04-20T15:42:57.684Z,7.43
2023-04-20T15:45:24.621Z,7.60
2023-04-20T15:47:51.713Z,7.22
2023-04-20T15:50:19.080Z,7.20
2023-04-20T15:52:49.652Z,7.25
2023-04-20T15:55:16.760Z,6.93
2023-04-20T15:57:44.495Z,7.57
2023-04-20T16:00:12.213Z,7.63
2023-04-20T16:02:40.122Z,8.13
2023-04-20T16:05:07.754Z,8.30
2023-04-20T16:07:34.444Z,9.10
2023-04-20T16:10:02.177Z,9.10
2023-04-20T16:12:29.146Z,9.45
2023-04-20T16:14:57.108Z,9.00
2023-04-20T16:17:23.866Z,8.90
2023-04-20T16:19:50.471Z,7.90
2023-04-20T16:22:17.237Z,8.52
2023-04-20T16:24:43.780Z,8.30
2023-04-20T16:27:10.462Z,9.13
2023-04-20T16:29:37.055Z,8.63
2023-04-20T16:32:03.656Z,8.77
2023-04-20T16:34:31.595Z,9.38
2023-04-20T16:36:58.642Z,9.20
2023-04-20T16:39:25.330Z,9.98
2023-04-20T16:41:51.938Z,10.05
2023-04-20T16:44:18.745Z,9.27
2023-04-20T16:46:49.857Z,8.75
2023-04-20T16:49:16.666Z,9.02
2023-04-20T16:51:43.372Z,9.00
2023-04-20T16:54:11.538Z,9.07
2023-04-20T16:56:38.521Z,9.77
2023-04-20T16:59:05.355Z,10.00
2023-04-20T17:01:32.151Z,10.88
2023-04-20T17:03:59.828Z,10.60
2023-04-20T17:06:27.465Z,10.30
2023-04-20T17:08:56.012Z,10.70
2023-04-20T17:11:22.622Z,11.95
2023-04-20T17:13:49.349Z,11.18
2023-04-20T17:16:16.056Z,12.02
2023-04-20T17:18:42.675Z,13.20
2023-04-20T17:21:09.234Z,13.40
2023-04-20T17:23:36.083Z,13.63
2023-04-20T17:26:03.148Z,13.88
2023-04-20T17:28:29.803Z,13.77
2023-04-20T17:30:56.371Z,14.48
2023-04-20T17:33:22.973Z,15.35
2023-04-20T17:35:49.560Z,15.48
2023-04-20T17:38:16.136Z,17.30
2023-04-20T17:40:42.760Z,16.67
2023-04-20T17:43:09.445Z,18.25
2023-04-20T17:45:37.098Z,17.88
2023-04-20T17:48:04.091Z,18.77
2023-04-20T17:50:30.768Z,17.15
2023-04-20T17:52:57.385Z,16.65
2023-04-20T17:55:24.050Z,15.90
2023-04-20T17:57:50.986Z,15.88
2023-04-20T18:00:18.705Z,16.10
2023-04-20T18:02:45.437Z,15.45
2023-04-20T18:05:12.187Z,15.40
2023-04-20T18:07:38.757Z,15.95
2023-04-20T18:10:06.023Z,15.63
2023-04-20T18:12:33.619Z,15.45
2023-04-20T18:15:00.766Z,16.80
2023-04-20T18:17:27.528Z,15.15
2023-04-20T18:19:54.154Z,16.08
2023-04-20T18:22:20.931Z,14.77
2023-04-20T18:24:47.498Z,16.02
2023-04-20T18:27:14.068Z,14.85
2023-04-20T18:29:40.625Z,16.25
2023-04-20T18:32:07.178Z,15.75
2023-04-20T18:34:33.768Z,14.38
2023-04-20T18:37:00.425Z,13.73
2023-04-20T18:39:27.064Z,13.40
2023-04-20T18:41:53.674Z,13.35
2023-04-20T18:44:20.855Z,13.18
2023-04-20T18:46:47.805Z,12.50
2023-04-20T18:49:14.464Z,12.65
2023-04-20T18:51:41.043Z,12.82
2023-04-20T18:54:07.679Z,12.60
2023-04-20T18:56:34.271Z,13.82
2023-04-20T18:59:01.583Z,13.55
2023-04-20T19:01:28.634Z,14.02
2023-04-20T19:03:55.660Z,12.50
2023-04-20T19:06:22.584Z,12.43
2023-04-20T19:08:50.937Z,12.68
2023-04-20T19:11:17.765Z,12.70
2023-04-20T19:13:45.315Z,12.80
2023-04-20T19:16:12.773Z,14.07
2023-04-20T19:18:39.683Z,12.20
2023-04-20T19:21:06.768Z,12.80
2023-04-20T19:23:33.648Z,12.30
2023-04-20T19:26:00.410Z,14.07
2023-04-20T19:28:26.957Z,14.32
2023-04-20T19:30:53.682Z,13.80
2023-04-20T19:33:20.888Z,13.55
2023-04-20T19:35:53.562Z,13.60
2023-04-20T19:38:21.533Z,13.30
2023-04-20T19:40:48.578Z,13.02
2023-04-20T19:43:16.931Z,13.80
2023-04-20T19:45:44.127Z,13.55
2023-04-20T19:48:10.912Z,13.60
2023-04-20T19:50:37.512Z,14.00
2023-04-20T19:53:04.107Z,13.98
2023-04-20T19:55:31.039Z,13.68
2023-04-20T19:57:57.628Z,13.15
2023-04-20T20:00:24.251Z,12.13
2023-04-20T20:02:50.898Z,13.05
2023-04-20T20:05:17.663Z,13.30
2023-04-20T20:07:44.364Z,12.88
2023-04-20T20:10:11.113Z,12.65
2023-04-20T20:12:37.698Z,12.43
2023-04-20T20:15:04.863Z,14.32
2023-04-20T20:17:31.662Z,11.75
2023-04-20T20:19:58.342Z,12.75
2023-04-20T20:22:25.234Z,12.40
2023-04-20T20:24:54.219Z,11.85
2023-04-20T20:27:21.256Z,11.77
2023-04-20T20:29:47.974Z,11.50
2023-04-20T20:32:14.699Z,11.95
2023-04-20T20:34:41.634Z,12.00
2023-04-20T20:37:10.305Z,11.80
2023-04-20T20:39:37.467Z,11.63
2023-04-20T20:42:05.383Z,12.85
2023-04-20T20:44:34.258Z,11.93
2023-04-20T20:47:01.102Z,12.48
2023-04-20T20:49:29.208Z,12.50
2023-04-20T20:51:55.960Z,12.63
2023-04-20T20:54:22.557Z,13.73
2023-04-20T20:56:49.195Z,12.30
2023-04-20T20:59:15.840Z,12.50
2023-04-20T21:01:42.570Z,13.20
2023-04-20T21:04:09.305Z,14.32
2023-04-20T21:06:36.167Z,14.25
2023-04-20T21:09:02.776Z,13.70
2023-04-20T21:11:29.408Z,14.88
2023-04-20T21:14:01.511Z,16.20
2023-04-20T21:16:28.671Z,16.85
2023-04-20T21:18:55.334Z,16.50
2023-04-20T21:21:21.928Z,15.68
2023-04-20T21:23:49.773Z,16.13
2023-04-20T21:26:16.491Z,17.45
2023-04-20T21:28:43.032Z,17.98
2023-04-20T21:31:09.676Z,19.55
2023-04-20T21:33:36.517Z,18.80
2023-04-20T21:36:03.125Z,19.90
2023-04-20T21:38:29.672Z,19.88
2023-04-20T21:40:56.222Z,19.30
2023-04-20T21:43:22.768Z,20.20
2023-04-20T21:45:50.853Z,20.10
2023-04-20T21:48:18.129Z,19.80
2023-04-20T21:50:44.691Z,20.88
2023-04-20T21:53:11.273Z,19.35
2023-04-20T21:55:37.839Z,20.45
2023-04-20T21:58:06.671Z,19.00
2023-04-20T22:00:33.246Z,19.85
2023-04-20T22:02:59.969Z,19.83
2023-04-20T22:05:27.841Z,19.98
2023-04-20T22:07:54.414Z,19.48
2023-04-20T22:10:21.183Z,19.90
2023-04-20T22:12:47.859Z,20.30
2023-04-20T22:15:15.023Z,20.50
2023-04-20T22:17:41.653Z,20.27
2023-04-20T22:20:10.313Z,22.08
2023-04-20T22:22:37.810Z,21.08
2023-04-20T22:25:05.316Z,21.25
2023-04-20T22:27:34.028Z,21.42
2023-04-20T22:30:00.870Z,21.52
2023-04-20T22:32:27.714Z,22.70
2023-04-20T22:34:54.371Z,22.40
2023-04-20T22:37:21.067Z,23.13
2023-04-20T22:39:47.621Z,24.00
2023-04-20T22:42:14.177Z,24.75
2023-04-20T22:44:40.882Z,28.65
2023-04-20T22:47:07.654Z,29.90
2023-04-20T22:49:34.974Z,32.00
2023-04-20T22:52:01.732Z,31.38
2023-04-20T22:54:28.335Z,32.88
2023-04-20T22:56:54.892Z,32.88
2023-04-20T22:59:21.570Z,42.60
2023-04-20T23:01:48.325Z,48.88
2023-04-20T23:04:14.996Z,53.13
2023-04-20T23:06:43.869Z,66.65
2023-04-20T23:09:13.285Z,67.20
2023-04-20T23:11:40.540Z,69.75
2023-04-20T23:14:08.671Z,64.63
2023-04-20T23:16:35.950Z,65.55
2023-04-20T23:19:02.627Z,65.57
2023-04-20T23:21:29.233Z,64.32
2023-04-20T23:23:58.986Z,69.00
2023-04-20T23:26:25.554Z,64.80
2023-04-20T23:28:53.446Z,78.28
2023-04-20T23:31:20.709Z,81.88
2023-04-20T23:33:48.207Z,81.53
2023-04-20T23:36:14.922Z,90.47
2023-04-20T23:38:42.016Z,96.97
2023-04-20T23:41:12.662Z,115.82
2023-04-20T23:43:39.899Z,117.68
2023-04-20T23:46:07.295Z,114.35
2023-04-20T23:48:34.686Z,114.72
2023-04-20T23:51:01.750Z,121.50
2023-04-20T23:53:28.505Z,131.63
2023-04-20T23:55:59.907Z,139.90
2023-04-20T23:58:28.274Z,128.88
